createdAt,value
2023-01-08T00:01:06.741Z,22.13
2023-01-08T00:03:34.021Z,19.73
2023-01-08T00:06:03.094Z,21.37
2023-01-08T00:08:31.360Z,17.00
2023-01-08T00:10:58.486Z,17.43
2023-01-08T00:13:25.544Z,20.80
2023-01-08T00:15:52.349Z,17.93
2023-01-08T00:18:19.264Z,18.33
2023-01-08T00:20:46.574Z,17.07
2023-01-08T00:23:17.649Z,17.77
2023-01-08T00:25:44.455Z,17.47
2023-01-08T00:28:11.574Z,20.03
2023-01-08T00:30:38.437Z,14.40
2023-01-08T00:33:05.068Z,15.87
2023-01-08T00:35:31.866Z,16.90
2023-01-08T00:37:58.563Z,16.00
2023-01-08T00:40:25.159Z,17.57
2023-01-08T00:42:51.813Z,17.47
2023-01-08T00:45:18.443Z,21.97
2023-01-08T00:47:45.234Z,19.20
2023-01-08T00:50:12.039Z,16.57
2023-01-08T00:52:39.170Z,21.63
2023-01-08T00:55:08.857Z,15.77
2023-01-08T00:57:37.351Z,18.63
2023-01-08T01:00:09.218Z,16.27
2023-01-08T01:02:36.771Z,17.53
2023-01-08T01:05:04.586Z,16.87
2023-01-08T01:07:31.691Z,15.27
2023-01-08T01:09:58.518Z,15.10
2023-01-08T01:12:25.210Z,17.50
2023-01-08T01:14:51.908Z,20.50
2023-01-08T01:17:18.574Z,17.23
2023-01-08T01:19:48.157Z,17.20
2023-01-08T01:22:14.913Z,17.43
2023-01-08T01:24:41.544Z,17.17
2023-01-08T01:27:08.252Z,16.07
2023-01-08T01:29:34.911Z,15.43
2023-01-08T01:32:01.599Z,15.23
2023-01-08T01:34:28.313Z,14.43
2023-01-08T01:36:55.023Z,13.67
2023-01-08T01:39:21.844Z,15.97
2023-01-08T01:41:48.638Z,13.60
2023-01-08T01:44:34.277Z,15.90
2023-01-08T01:47:05.822Z,15.80
2023-01-08T01:49:33.619Z,16.03
2023-01-08T01:52:03.095Z,14.37
2023-01-08T01:54:31.639Z,14.70
2023-01-08T01:57:00.373Z,13.97
2023-01-08T01:59:27.534Z,17.10
2023-01-08T02:01:56.254Z,14.33
2023-01-08T02:04:22.993Z,13.87
2023-01-08T02:06:55.684Z,13.57
2023-01-08T02:09:35.647Z,15.30
2023-01-08T02:12:18.826Z,13.60
2023-01-08T02:14:54.961Z,13.20
2023-01-08T02:17:33.037Z,15.53
2023-01-08T02:20:11.887Z,12.33
2023-01-08T02:22:54.376Z,12.37
2023-01-08T02:25:54.466Z,11.83
2023-01-08T02:28:22.429Z,13.50
2023-01-08T02:30:49.824Z,12.47
2023-01-08T02:33:16.593Z,18.80
2023-01-08T02:35:54.279Z,14.07
2023-01-08T02:38:22.567Z,13.17
2023-01-08T02:41:09.549Z,12.87
2023-01-08T02:43:42.772Z,14.30
2023-01-08T02:46:14.507Z,15.73
2023-01-08T02:48:57.136Z,13.20
2023-01-08T02:51:35.553Z,14.27
2023-01-08T02:54:09.333Z,13.30
2023-01-08T02:56:41.675Z,16.67
2023-01-08T02:59:11.073Z,15.00
2023-01-08T03:01:39.125Z,18.13
2023-01-08T03:04:19.694Z,17.87
2023-01-08T03:06:46.625Z,18.67
2023-01-08T03:09:14.535Z,24.00
2023-01-08T03:11:49.169Z,19.10
2023-01-08T03:14:23.004Z,18.40
2023-01-08T03:16:54.095Z,17.67
2023-01-08T03:19:41.624Z,17.83
2023-01-08T03:22:13.380Z,19.07
2023-01-08T03:24:42.144Z,16.40
2023-01-08T03:27:16.592Z,20.23
2023-01-08T03:29:44.855Z,23.93
2023-01-08T03:32:15.346Z,29.37
2023-01-08T03:34:44.867Z,47.87
2023-01-08T03:37:14.391Z,35.33
2023-01-08T03:39:55.820Z,56.20
2023-01-08T03:42:23.355Z,55.97
2023-01-08T03:44:50.001Z,40.30
2023-01-08T03:47:17.015Z,43.40
2023-01-08T03:49:45.281Z,43.20
2023-01-08T03:52:22.271Z,36.73
2023-01-08T03:54:48.945Z,28.17
2023-01-08T03:57:15.556Z,35.63
2023-01-08T03:59:42.155Z,30.93
2023-01-08T04:02:09.181Z,38.10
2023-01-08T04:04:36.072Z,35.43
2023-01-08T04:07:02.884Z,36.43
2023-01-08T04:09:29.440Z,44.57
2023-01-08T04:11:56.074Z,26.30
2023-01-08T04:14:22.707Z,56.33
2023-01-08T04:16:49.419Z,31.23
2023-01-08T04:19:16.125Z,24.70
2023-01-08T04:21:42.789Z,26.00
2023-01-08T04:24:09.529Z,32.80
2023-01-08T04:26:36.163Z,41.53
2023-01-08T04:29:04.208Z,41.50
2023-01-08T04:31:31.810Z,34.80
2023-01-08T04:33:58.473Z,30.27
2023-01-08T04:36:25.116Z,49.07
2023-01-08T04:38:51.771Z,33.47
2023-01-08T04:41:18.562Z,32.73
2023-01-08T04:43:45.368Z,22.90
2023-01-08T04:46:12.114Z,27.53
2023-01-08T04:48:38.873Z,26.90
2023-01-08T04:51:05.821Z,53.00
2023-01-08T04:53:36.349Z,49.90
2023-01-08T04:56:07.795Z,42.57
2023-01-08T04:58:35.481Z,30.13
2023-01-08T05:01:09.870Z,25.50
2023-01-08T05:03:36.569Z,56.17
2023-01-08T05:06:03.269Z,69.33
2023-01-08T05:08:29.894Z,67.40
2023-01-08T05:10:59.459Z,99.57
2023-01-08T05:13:26.088Z,61.67
2023-01-08T05:15:52.732Z,91.77
2023-01-08T05:18:19.643Z,54.83
2023-01-08T05:20:46.217Z,86.80
2023-01-08T05:23:12.885Z,99.20
2023-01-08T05:25:39.452Z,73.83
2023-01-08T05:28:06.001Z,93.03
2023-01-08T05:30:32.615Z,79.27
2023-01-08T05:32:59.201Z,72.47
2023-01-08T05:35:25.832Z,117.80
2023-01-08T05:37:52.396Z,110.73
2023-01-08T05:40:19.030Z,47.50
2023-01-08T05:42:45.687Z,49.77
2023-01-08T05:45:12.343Z,45.13
2023-01-08T05:47:38.955Z,47.17
2023-01-08T05:50:06.023Z,35.33
2023-01-08T05:52:32.668Z,58.53
2023-01-08T05:55:00.185Z,29.77
2023-01-08T05:57:26.945Z,51.13
2023-01-08T05:59:53.529Z,71.97
2023-01-08T06:02:23.033Z,28.97
2023-01-08T06:04:49.748Z,30.17
2023-01-08T06:07:16.372Z,43.00
2023-01-08T06:09:42.987Z,36.63
2023-01-08T06:12:09.612Z,57.47
2023-01-08T06:14:36.148Z,58.13
2023-01-08T06:17:02.715Z,62.50
2023-01-08T06:19:29.296Z,41.40
2023-01-08T06:21:56.731Z,61.43
2023-01-08T06:24:23.456Z,36.83
2023-01-08T06:26:50.121Z,27.40
2023-01-08T06:29:16.687Z,27.63
2023-01-08T06:31:43.357Z,26.40
2023-01-08T06:34:11.443Z,52.07
2023-01-08T06:36:38.116Z,28.23
2023-01-08T06:39:08.487Z,54.27
2023-01-08T06:41:35.120Z,35.80
2023-01-08T06:44:01.784Z,35.03
2023-01-08T06:46:28.484Z,36.57
2023-01-08T06:48:55.150Z,30.07
2023-01-08T06:51:21.769Z,46.73
2023-01-08T06:53:48.959Z,36.37
2023-01-08T06:56:15.540Z,37.23
2023-01-08T06:58:42.180Z,42.53
2023-01-08T07:01:14.206Z,22.73
2023-01-08T07:03:40.931Z,33.00
2023-01-08T07:06:08.037Z,23.67
2023-01-08T07:08:34.632Z,37.07
2023-01-08T07:11:04.560Z,27.50
2023-01-08T07:13:31.180Z,45.03
2023-01-08T07:15:57.855Z,34.80
2023-01-08T07:18:24.529Z,43.97
2023-01-08T07:20:51.507Z,34.50
2023-01-08T07:23:18.117Z,28.43
2023-01-08T07:25:44.807Z,28.50
2023-01-08T07:28:12.858Z,30.63
2023-01-08T07:30:39.538Z,30.00
2023-01-08T07:33:06.149Z,20.20
2023-01-08T07:35:32.746Z,20.03
2023-01-08T07:37:59.474Z,20.23
2023-01-08T07:40:26.086Z,31.77
2023-01-08T07:43:03.858Z,31.63
2023-01-08T07:45:32.070Z,29.97
2023-01-08T07:47:59.310Z,32.87
2023-01-08T07:50:26.830Z,25.23
2023-01-08T07:52:53.528Z,28.23
2023-01-08T07:55:20.131Z,25.80
2023-01-08T07:57:46.700Z,23.57
2023-01-08T08:00:14.798Z,28.10
2023-01-08T08:02:41.511Z,25.80
2023-01-08T08:05:08.658Z,24.27
2023-01-08T08:07:36.075Z,26.37
2023-01-08T08:10:04.332Z,28.40
2023-01-08T08:12:31.071Z,29.63
2023-01-08T08:14:57.695Z,25.33
2023-01-08T08:17:24.536Z,28.07
2023-01-08T08:19:51.082Z,32.30
2023-01-08T08:22:17.696Z,30.43
2023-01-08T08:24:44.289Z,28.23
2023-01-08T08:27:10.869Z,23.70
2023-01-08T08:29:37.504Z,29.53
2023-01-08T08:32:04.315Z,24.20
2023-01-08T08:34:30.925Z,30.70
2023-01-08T08:36:57.537Z,28.90
2023-01-08T08:39:24.131Z,25.77
2023-01-08T08:41:50.779Z,32.67
2023-01-08T08:44:17.396Z,28.37
2023-01-08T08:46:44.123Z,26.90
2023-01-08T08:49:10.834Z,27.93
2023-01-08T08:51:37.477Z,26.60
2023-01-08T08:54:04.102Z,27.97
2023-01-08T08:56:30.843Z,25.80
2023-01-08T08:58:58.453Z,26.87
2023-01-08T09:01:25.369Z,28.77
2023-01-08T09:03:52.045Z,27.17
2023-01-08T09:06:18.688Z,30.00
2023-01-08T09:08:45.338Z,24.03
2023-01-08T09:11:14.263Z,29.10
2023-01-08T09:13:41.081Z,25.47
2023-01-08T09:16:07.997Z,24.37
2023-01-08T09:18:34.637Z,29.40
2023-01-08T09:21:05.828Z,27.20
2023-01-08T09:23:33.105Z,30.93
2023-01-08T09:26:03.821Z,31.90
2023-01-08T09:28:30.902Z,28.67
2023-01-08T09:31:02.097Z,30.17
2023-01-08T09:33:29.250Z,28.10
2023-01-08T09:35:55.823Z,25.67
2023-01-08T09:38:22.497Z,27.87
2023-01-08T09:40:56.577Z,27.10
2023-01-08T09:43:26.637Z,24.13
2023-01-08T09:45:57.942Z,24.00
2023-01-08T09:48:28.758Z,29.60
2023-01-08T09:50:56.359Z,28.37
2023-01-08T09:53:23.445Z,27.13
2023-01-08T09:56:09.836Z,27.87
2023-01-08T09:58:42.233Z,30.43
2023-01-08T10:01:13.722Z,29.53
2023-01-08T10:03:45.107Z,21.17
2023-01-08T10:06:13.516Z,21.40
2023-01-08T10:08:40.215Z,27.83
2023-01-08T10:11:09.095Z,23.13
2023-01-08T10:13:39.501Z,22.40
2023-01-08T10:16:08.298Z,19.27
2023-01-08T10:18:35.294Z,19.83
2023-01-08T10:21:01.934Z,20.03
2023-01-08T10:23:28.634Z,18.80
2023-01-08T10:25:58.290Z,17.40
2023-01-08T10:28:30.248Z,20.87
2023-01-08T10:31:05.684Z,18.23
2023-01-08T10:33:42.368Z,16.83
2023-01-08T10:36:11.995Z,18.83
2023-01-08T10:38:54.189Z,18.53
2023-01-08T10:41:22.030Z,15.60
2023-01-08T10:43:57.440Z,14.40
2023-01-08T10:46:31.140Z,18.77
2023-01-08T10:49:00.891Z,16.03
2023-01-08T10:51:31.141Z,14.47
2023-01-08T10:54:26.423Z,22.23
2023-01-08T10:56:53.106Z,17.47
2023-01-08T10:59:20.275Z,16.53
2023-01-08T11:01:48.622Z,17.60
2023-01-08T11:04:36.484Z,13.33
2023-01-08T11:07:07.272Z,16.03
2023-01-08T11:09:40.768Z,14.67
2023-01-08T11:12:41.012Z,13.33
2023-01-08T11:15:28.215Z,16.57
2023-01-08T11:17:54.936Z,16.30
2023-01-08T11:20:28.155Z,13.53
2023-01-08T11:23:23.889Z,15.10
2023-01-08T11:26:19.695Z,14.20
2023-01-08T11:29:20.559Z,17.40
2023-01-08T11:31:57.291Z,19.30
2023-01-08T11:34:48.697Z,17.47
2023-01-08T11:37:22.228Z,15.17
2023-01-08T11:39:49.925Z,14.10
2023-01-08T11:42:31.395Z,12.77
2023-01-08T11:45:31.228Z,12.37
2023-01-08T11:48:11.503Z,12.57
2023-01-08T11:51:16.621Z,11.30
2023-01-08T11:53:59.489Z,10.03
2023-01-08T11:56:56.406Z,12.10
2023-01-08T11:59:46.301Z,15.27
2023-01-08T12:02:19.028Z,14.90
2023-01-08T12:05:21.413Z,16.00
2023-01-08T12:07:53.872Z,14.43
2023-01-08T12:10:31.090Z,16.03
2023-01-08T12:13:16.360Z,17.57
2023-01-08T12:16:18.966Z,16.70
2023-01-08T12:19:13.681Z,13.80
2023-01-08T12:21:56.326Z,12.20
2023-01-08T12:24:54.239Z,15.93
2023-01-08T12:27:55.813Z,12.43
2023-01-08T12:30:48.122Z,12.73
2023-01-08T12:33:32.631Z,15.13
2023-01-08T12:36:02.036Z,13.50
2023-01-08T12:38:32.785Z,15.43
2023-01-08T12:41:04.953Z,13.67
2023-01-08T12:43:35.433Z,15.87
2023-01-08T12:46:03.436Z,23.03
2023-01-08T12:48:33.251Z,14.30
2023-01-08T12:51:07.774Z,127.13
2023-01-08T12:53:55.853Z,20.33
2023-01-08T12:56:56.135Z,13.10
2023-01-08T12:59:54.280Z,14.97
2023-01-08T13:02:51.921Z,12.67
2023-01-08T13:05:18.583Z,13.17
2023-01-08T13:07:48.299Z,13.57
2023-01-08T13:10:32.427Z,14.47
2023-01-08T13:13:01.888Z,14.57
2023-01-08T13:15:31.045Z,19.73
2023-01-08T13:18:05.623Z,14.47
2023-01-08T13:20:32.536Z,13.63
2023-01-08T13:23:05.444Z,19.93
2023-01-08T13:25:38.114Z,14.27
2023-01-08T13:28:29.622Z,13.97
2023-01-08T13:31:09.179Z,11.73
2023-01-08T13:33:35.758Z,17.23
2023-01-08T13:36:14.535Z,15.07
2023-01-08T13:38:41.558Z,13.90
2023-01-08T13:41:30.041Z,14.13
2023-01-08T13:44:16.302Z,13.53
2023-01-08T13:46:44.159Z,13.87
2023-01-08T13:49:28.945Z,11.50
2023-01-08T13:51:55.766Z,11.67
2023-01-08T13:54:29.009Z,11.03
2023-01-08T13:57:04.153Z,20.63
2023-01-08T13:59:41.947Z,15.90
2023-01-08T14:02:34.349Z,18.60
2023-01-08T14:05:12.197Z,19.77
2023-01-08T14:07:39.338Z,22.63
2023-01-08T14:10:09.322Z,22.27
2023-01-08T14:12:35.987Z,14.80
2023-01-08T14:15:04.520Z,11.70
2023-01-08T14:17:32.570Z,10.63
2023-01-08T14:19:59.606Z,13.73
2023-01-08T14:22:33.666Z,15.20
2023-01-08T14:25:04.202Z,14.43
2023-01-08T14:27:31.980Z,12.23
2023-01-08T14:29:58.927Z,12.57
2023-01-08T14:32:30.631Z,11.90
2023-01-08T14:35:03.494Z,11.77
2023-01-08T14:37:30.239Z,12.53
2023-01-08T14:39:56.805Z,11.00
2023-01-08T14:42:47.359Z,12.80
2023-01-08T14:45:24.719Z,13.33
2023-01-08T14:47:56.512Z,13.60
2023-01-08T14:50:33.633Z,20.57
2023-01-08T14:53:25.752Z,15.73
2023-01-08T14:55:55.112Z,13.30
2023-01-08T14:58:28.604Z,14.57
2023-01-08T15:00:59.410Z,15.13
2023-01-08T15:03:34.306Z,17.30
2023-01-08T15:06:05.397Z,12.10
2023-01-08T15:08:34.892Z,11.80
2023-01-08T15:11:06.289Z,10.03
2023-01-08T15:13:38.237Z,10.77
2023-01-08T15:16:11.911Z,10.63
2023-01-08T15:18:44.933Z,9.13
2023-01-08T15:21:17.400Z,9.70
2023-01-08T15:23:51.610Z,10.37
2023-01-08T15:26:18.582Z,13.67
2023-01-08T15:28:53.877Z,14.30
2023-01-08T15:31:28.609Z,13.90
2023-01-08T15:33:55.986Z,10.87
2023-01-08T15:36:22.799Z,10.60
2023-01-08T15:38:50.203Z,9.73
2023-01-08T15:41:40.601Z,12.47
2023-01-08T15:44:09.046Z,10.43
2023-01-08T15:46:36.304Z,10.87
2023-01-08T15:49:03.326Z,11.73
2023-01-08T15:51:33.195Z,8.60
2023-01-08T15:54:02.819Z,8.90
2023-01-08T15:56:29.977Z,7.90
2023-01-08T15:58:56.988Z,8.73
2023-01-08T16:01:24.171Z,9.83
2023-01-08T16:03:51.273Z,10.43
2023-01-08T16:06:20.964Z,10.20
2023-01-08T16:08:48.112Z,9.60
2023-01-08T16:11:16.681Z,14.83
2023-01-08T16:13:43.677Z,14.37
2023-01-08T16:16:16.005Z,17.20
2023-01-08T16:18:42.941Z,12.43
2023-01-08T16:21:10.693Z,14.47
2023-01-08T16:23:39.521Z,13.73
2023-01-08T16:26:11.648Z,12.80
2023-01-08T16:28:39.110Z,12.27
2023-01-08T16:31:07.301Z,13.00
2023-01-08T16:33:34.603Z,17.53
2023-01-08T16:36:04.011Z,13.23
2023-01-08T16:38:33.472Z,15.37
2023-01-08T16:41:00.719Z,13.70
2023-01-08T16:43:30.103Z,14.20
2023-01-08T16:45:57.403Z,13.70
2023-01-08T16:48:24.255Z,15.93
2023-01-08T16:50:51.168Z,15.67
2023-01-08T16:53:18.118Z,16.83
2023-01-08T16:55:44.956Z,16.10
2023-01-08T16:58:12.256Z,14.40
2023-01-08T17:00:42.250Z,15.87
2023-01-08T17:03:09.135Z,15.40
2023-01-08T17:05:36.910Z,18.10
2023-01-08T17:08:03.693Z,18.83
2023-01-08T17:10:30.427Z,23.07
2023-01-08T17:12:59.809Z,17.17
2023-01-08T17:15:26.654Z,17.73
2023-01-08T17:17:53.381Z,19.70
2023-01-08T17:20:20.326Z,18.57
2023-01-08T17:22:47.125Z,19.07
2023-01-08T17:25:14.193Z,24.40
2023-01-08T17:27:42.095Z,26.37
2023-01-08T17:30:13.867Z,22.43
2023-01-08T17:32:41.024Z,18.53
2023-01-08T17:35:08.285Z,20.93
2023-01-08T17:37:35.118Z,23.50
2023-01-08T17:40:02.376Z,23.53
2023-01-08T17:42:30.418Z,25.80
2023-01-08T17:45:00.286Z,23.80
2023-01-08T17:47:27.280Z,29.50
2023-01-08T17:49:57.520Z,27.30
2023-01-08T17:52:25.721Z,31.70
2023-01-08T17:54:52.886Z,39.40
2023-01-08T17:57:21.051Z,31.27
2023-01-08T17:59:48.408Z,25.13
2023-01-08T18:02:16.743Z,22.77
2023-01-08T18:04:45.581Z,22.67
2023-01-08T18:07:15.409Z,23.00
2023-01-08T18:09:42.010Z,22.43
2023-01-08T18:12:11.195Z,23.80
2023-01-08T18:14:39.081Z,26.40
2023-01-08T18:17:06.316Z,24.37
2023-01-08T18:19:33.215Z,25.00
2023-01-08T18:22:00.818Z,22.27
2023-01-08T18:24:27.695Z,26.90
2023-01-08T18:26:54.619Z,34.57
2023-01-08T18:29:21.317Z,63.90
2023-01-08T18:31:48.011Z,43.77
2023-01-08T18:34:15.266Z,43.37
2023-01-08T18:36:42.682Z,53.00
2023-01-08T18:39:09.547Z,56.33
2023-01-08T18:41:55.038Z,28.10
2023-01-08T18:44:21.725Z,26.30
2023-01-08T18:46:48.477Z,24.23
2023-01-08T18:49:15.516Z,25.50
2023-01-08T18:51:42.458Z,25.20
2023-01-08T18:54:11.186Z,23.60
2023-01-08T18:56:38.094Z,43.33
2023-01-08T18:59:06.736Z,24.33
2023-01-08T19:01:35.431Z,27.07
2023-01-08T19:04:02.711Z,24.90
2023-01-08T19:06:29.714Z,22.03
2023-01-08T19:08:58.568Z,20.57
2023-01-08T19:11:25.839Z,23.07
2023-01-08T19:13:57.151Z,20.60
2023-01-08T19:16:24.236Z,21.33
2023-01-08T19:18:51.087Z,21.70
2023-01-08T19:21:19.373Z,21.20
2023-01-08T19:23:47.024Z,20.67
2023-01-08T19:26:14.683Z,20.97
2023-01-08T19:28:42.478Z,23.70
2023-01-08T19:31:12.797Z,26.67
2023-01-08T19:33:40.097Z,26.10
2023-01-08T19:36:15.934Z,26.27
2023-01-08T19:38:44.393Z,30.00
2023-01-08T19:41:30.792Z,27.47
2023-01-08T19:43:58.364Z,32.70
2023-01-08T19:46:25.468Z,28.70
2023-01-08T19:48:52.687Z,30.23
2023-01-08T19:51:19.519Z,32.50
2023-01-08T19:53:46.439Z,37.73
2023-01-08T19:56:14.759Z,35.77
2023-01-08T19:58:41.789Z,38.07
2023-01-08T20:01:20.137Z,44.77
2023-01-08T20:03:47.599Z,28.77
2023-01-08T20:06:19.587Z,30.27
2023-01-08T20:08:48.147Z,23.53
2023-01-08T20:11:17.154Z,22.17
2023-01-08T20:13:43.931Z,20.47
2023-01-08T20:16:16.979Z,20.07
2023-01-08T20:18:43.967Z,22.10
2023-01-08T20:21:17.002Z,26.77
2023-01-08T20:23:47.733Z,26.67
2023-01-08T20:26:17.928Z,33.30
2023-01-08T20:28:46.179Z,23.40
2023-01-08T20:31:15.476Z,26.90
2023-01-08T20:33:43.104Z,21.30
2023-01-08T20:36:17.961Z,26.17
2023-01-08T20:38:45.628Z,24.23
2023-01-08T20:41:12.835Z,24.40
2023-01-08T20:43:40.940Z,22.63
2023-01-08T20:46:09.951Z,22.10
2023-01-08T20:48:42.971Z,28.13
2023-01-08T20:51:13.521Z,26.40
2023-01-08T20:53:40.545Z,29.13
2023-01-08T20:56:12.656Z,27.87
2023-01-08T20:58:41.446Z,35.73
2023-01-08T21:01:10.758Z,36.33
2023-01-08T21:03:38.648Z,30.73
2023-01-08T21:06:10.647Z,32.17
2023-01-08T21:08:37.333Z,31.10
2023-01-08T21:11:08.938Z,31.43
2023-01-08T21:13:36.409Z,28.70
2023-01-08T21:16:14.894Z,28.63
2023-01-08T21:18:47.484Z,31.40
2023-01-08T21:21:20.548Z,43.60
2023-01-08T21:23:47.881Z,39.70
2023-01-08T21:26:15.868Z,41.30
2023-01-08T21:28:43.224Z,41.33
2023-01-08T21:31:16.601Z,35.00
2023-01-08T21:33:47.038Z,34.37
2023-01-08T21:36:19.009Z,26.47
2023-01-08T21:38:46.222Z,34.30
2023-01-08T21:41:42.950Z,37.30
2023-01-08T21:44:34.358Z,29.87
2023-01-08T21:47:02.319Z,27.47
2023-01-08T21:49:29.382Z,27.63
2023-01-08T21:52:14.741Z,25.37
2023-01-08T21:54:44.074Z,23.50
2023-01-08T21:57:10.794Z,22.80
2023-01-08T21:59:37.865Z,21.40
2023-01-08T22:02:05.094Z,22.90
2023-01-08T22:04:32.360Z,21.37
2023-01-08T22:06:59.046Z,23.50
2023-01-08T22:09:25.647Z,24.90
2023-01-08T22:11:53.833Z,29.63
2023-01-08T22:14:20.436Z,26.23
2023-01-08T22:16:47.131Z,27.57
2023-01-08T22:19:14.007Z,24.03
2023-01-08T22:21:40.721Z,26.90
2023-01-08T22:24:07.483Z,27.37
2023-01-08T22:26:37.322Z,24.47
2023-01-08T22:29:06.012Z,26.90
2023-01-08T22:31:33.063Z,22.23
2023-01-08T22:34:00.178Z,26.63
2023-01-08T22:36:26.851Z,24.70
2023-01-08T22:38:53.644Z,24.20
2023-01-08T22:41:22.494Z,20.40
2023-01-08T22:43:56.734Z,17.80
2023-01-08T22:46:26.919Z,16.07
2023-01-08T22:48:53.891Z,15.80
2023-01-08T22:51:27.244Z,14.90
2023-01-08T22:53:55.166Z,16.83
2023-01-08T22:56:22.032Z,18.27
2023-01-08T22:58:48.677Z,20.40
2023-01-08T23:01:24.203Z,30.03
2023-01-08T23:03:52.787Z,27.93
2023-01-08T23:06:20.961Z,25.23
2023-01-08T23:08:48.052Z,26.63
2023-01-08T23:11:17.031Z,25.17
2023-01-08T23:13:44.133Z,40.10
2023-01-08T23:16:13.145Z,29.97
2023-01-08T23:18:39.867Z,24.60
2023-01-08T23:21:18.252Z,23.70
2023-01-08T23:23:45.521Z,21.77
2023-01-08T23:26:21.121Z,18.30
2023-01-08T23:28:49.519Z,17.37
2023-01-08T23:31:23.043Z,17.03
2023-01-08T23:33:50.072Z,19.50
2023-01-08T23:36:19.072Z,16.30
2023-01-08T23:38:49.774Z,17.70
2023-01-08T23:41:18.953Z,17.67
2023-01-08T23:43:46.307Z,16.77
2023-01-08T23:46:13.785Z,20.07
2023-01-08T23:48:41.106Z,17.43
2023-01-08T23:51:08.365Z,19.10
2023-01-08T23:53:35.110Z,15.60
2023-01-08T23:56:01.886Z,18.87
2023-01-08T23:58:28.489Z,18.30
